Time;durP1;ratioP1;P1;durP2;ratioP2;P2;SDS_P1;SDS_P2;PMS_P1;PMS_P2;Temp;Humidity;BMP_temperature;BMP_pressure;BME280_temperature;BME280_humidity;BME280_pressure;Samples;Min_cycle;Max_cycle;Signal;HPM_P1;HPM_P2
2022/03/05 00:01:04;;;;;;;12.02;8.07;;;;;;;;;;4901185;29;20489;-66
2022/03/05 00:03:30;;;;;;;13.10;7.85;;;;;;;;;;4900606;29;20068;-69
2022/03/05 00:05:56;;;;;;;10.02;6.97;;;;;;;;;;4900399;29;20117;-69
2022/03/05 00:08:22;;;;;;;12.60;7.90;;;;;;;;;;4900239;29;20500;-68
2022/03/05 00:10:48;;;;;;;13.25;7.82;;;;;;;;;;4900071;29;20056;-67
2022/03/05 00:13:14;;;;;;;14.00;8.40;;;;;;;;;;4900342;29;20088;-68
2022/03/05 00:15:39;;;;;;;11.70;8.25;;;;;;;;;;4900090;29;20024;-66
2022/03/05 00:18:06;;;;;;;10.80;7.38;;;;;;;;;;4899002;29;20060;-66
2022/03/05 00:20:32;;;;;;;11.05;7.07;;;;;;;;;;4899875;29;20472;-71
2022/03/05 00:22:57;;;;;;;10.40;7.03;;;;;;;;;;4899780;29;20044;-68
2022/03/05 00:25:24;;;;;;;11.57;7.13;;;;;;;;;;4900120;29;20032;-77
2022/03/05 00:27:51;;;;;;;11.02;7.30;;;;;;;;;;4900239;29;20120;-73
2022/03/05 00:30:17;;;;;;;12.27;7.57;;;;;;;;;;4899999;29;20028;-70
2022/03/05 00:32:44;;;;;;;11.35;6.95;;;;;;;;;;4899441;29;20045;-69
2022/03/05 00:35:10;;;;;;;10.57;6.80;;;;;;;;;;4899541;29;20116;-69
2022/03/05 00:37:37;;;;;;;12.00;6.78;;;;;;;;;;4899737;29;20040;-75
2022/03/05 00:40:04;;;;;;;10.25;7.50;;;;;;;;;;4899894;29;20111;-76
2022/03/05 00:42:30;;;;;;;13.80;7.32;;;;;;;;;;4899936;29;20037;-72
2022/03/05 00:44:56;;;;;;;12.75;7.68;;;;;;;;;;4899438;29;20083;-75
2022/03/05 00:47:22;;;;;;;12.55;8.50;;;;;;;;;;4899355;29;20128;-69
2022/03/05 00:49:47;;;;;;;12.52;7.90;;;;;;;;;;4899851;29;20481;-76
2022/03/05 00:52:13;;;;;;;14.27;8.02;;;;;;;;;;4899713;29;20057;-73
2022/03/05 00:54:39;;;;;;;11.63;7.78;;;;;;;;;;4899878;29;20047;-75
2022/03/05 00:57:05;;;;;;;11.98;8.52;;;;;;;;;;4899571;29;20136;-72
2022/03/05 00:59:30;;;;;;;14.00;8.70;;;;;;;;;;4899140;29;20520;-75
2022/03/05 01:01:57;;;;;;;13.75;9.38;;;;;;;;;;4899491;29;20036;-74
2022/03/05 01:04:22;;;;;;;15.48;9.25;;;;;;;;;;4899136;29;20637;-74
2022/03/05 01:06:48;;;;;;;13.27;8.90;;;;;;;;;;4899009;29;20441;-70
2022/03/05 01:09:14;;;;;;;11.63;8.68;;;;;;;;;;4894868;29;20112;-68
2022/03/05 01:11:41;;;;;;;14.85;9.63;;;;;;;;;;4897300;29;20539;-75
2022/03/05 01:14:07;;;;;;;14.95;9.57;;;;;;;;;;4897947;29;20115;-76
2022/03/05 01:16:34;;;;;;;14.98;9.05;;;;;;;;;;4897414;29;20056;-71
2022/03/05 01:19:01;;;;;;;12.90;8.63;;;;;;;;;;4890546;29;20074;-73
2022/03/05 01:21:27;;;;;;;14.48;9.00;;;;;;;;;;4879498;29;20108;-70
2022/03/05 01:23:53;;;;;;;15.60;8.68;;;;;;;;;;4878982;29;20160;-77
2022/03/05 01:26:19;;;;;;;12.15;8.45;;;;;;;;;;4888356;29;20060;-76
2022/03/05 01:28:45;;;;;;;11.30;8.73;;;;;;;;;;4897915;29;20071;-75
2022/03/05 01:31:11;;;;;;;11.30;7.40;;;;;;;;;;4897608;29;20060;-75
2022/03/05 01:33:37;;;;;;;12.52;7.97;;;;;;;;;;4897881;29;20090;-71
2022/03/05 01:36:03;;;;;;;14.13;9.57;;;;;;;;;;4897578;29;20036;-74
2022/03/05 01:38:28;;;;;;;19.05;11.95;;;;;;;;;;4897757;29;20071;-71
2022/03/05 01:40:54;;;;;;;21.83;12.60;;;;;;;;;;4897980;29;20072;-70
2022/03/05 01:43:20;;;;;;;20.65;12.32;;;;;;;;;;4897606;29;20021;-71
2022/03/05 01:45:46;;;;;;;22.83;13.88;;;;;;;;;;4896723;29;20555;-70
2022/03/05 01:48:11;;;;;;;19.90;12.85;;;;;;;;;;4897242;29;20065;-68
2022/03/05 01:50:37;;;;;;;22.05;13.38;;;;;;;;;;4897689;29;20063;-68
2022/03/05 01:53:03;;;;;;;23.48;15.25;;;;;;;;;;4897463;29;20100;-70
2022/03/05 01:55:29;;;;;;;22.10;14.05;;;;;;;;;;4896864;29;20044;-69
2022/03/05 01:57:55;;;;;;;20.70;12.82;;;;;;;;;;4896839;29;20456;-66
2022/03/05 02:00:21;;;;;;;23.58;14.02;;;;;;;;;;4897131;29;20073;-68
2022/03/05 02:02:47;;;;;;;20.27;12.77;;;;;;;;;;4897515;29;20506;-70
2022/03/05 02:05:13;;;;;;;18.88;11.85;;;;;;;;;;4897068;29;20039;-69
2022/03/05 02:07:41;;;;;;;21.10;12.73;;;;;;;;;;4897199;29;20069;-76
2022/03/05 02:10:09;;;;;;;19.25;12.95;;;;;;;;;;4897273;29;20044;-76
2022/03/05 02:12:37;;;;;;;19.77;12.80;;;;;;;;;;4886956;29;20165;-69
2022/03/05 02:15:04;;;;;;;23.05;14.35;;;;;;;;;;4891157;29;20489;-73
2022/03/05 02:17:30;;;;;;;19.15;11.75;;;;;;;;;;4897015;29;20032;-74
2022/03/05 02:19:57;;;;;;;20.25;12.10;;;;;;;;;;4890903;29;20041;-67
2022/03/05 02:22:25;;;;;;;18.85;11.20;;;;;;;;;;4896265;29;20036;-74
2022/03/05 02:24:52;;;;;;;18.45;11.85;;;;;;;;;;4896181;29;20036;-76
2022/03/05 02:27:21;;;;;;;20.88;12.85;;;;;;;;;;4897053;29;20060;-76
2022/03/05 02:29:47;;;;;;;15.90;11.15;;;;;;;;;;4896746;29;20068;-75
2022/03/05 02:32:13;;;;;;;19.42;10.48;;;;;;;;;;4896634;29;20464;-69
2022/03/05 02:34:39;;;;;;;17.38;11.00;;;;;;;;;;4896911;29;20048;-76
2022/03/05 02:37:04;;;;;;;16.60;11.05;;;;;;;;;;4895211;29;20089;-72
2022/03/05 02:39:30;;;;;;;16.38;9.98;;;;;;;;;;4896987;29;20040;-73
2022/03/05 02:41:56;;;;;;;16.50;10.65;;;;;;;;;;4896727;29;20032;-76
2022/03/05 02:44:23;;;;;;;15.30;10.48;;;;;;;;;;4896983;29;20028;-71
2022/03/05 02:46:50;;;;;;;16.02;10.27;;;;;;;;;;4896878;29;20032;-76
2022/03/05 02:49:16;;;;;;;16.27;11.23;;;;;;;;;;4896539;29;20480;-71
2022/03/05 02:51:42;;;;;;;15.77;9.82;;;;;;;;;;4896760;29;20064;-76
2022/03/05 02:54:08;;;;;;;18.45;10.65;;;;;;;;;;4896888;29;20040;-72
2022/03/05 02:56:33;;;;;;;15.95;10.32;;;;;;;;;;4898409;29;20033;-73
2022/03/05 02:58:59;;;;;;;18.33;11.10;;;;;;;;;;4900362;29;20048;-76
2022/03/05 03:01:25;;;;;;;18.67;10.85;;;;;;;;;;4899840;29;20796;-72
2022/03/05 03:03:51;;;;;;;18.60;10.48;;;;;;;;;;4900227;29;20036;-76
2022/03/05 03:06:17;;;;;;;20.17;12.35;;;;;;;;;;4900390;29;20043;-75
2022/03/05 03:08:43;;;;;;;20.48;12.05;;;;;;;;;;4900367;29;20032;-73
2022/03/05 03:11:10;;;;;;;16.00;11.27;;;;;;;;;;4900025;29;20029;-75
2022/03/05 03:13:37;;;;;;;15.48;11.60;;;;;;;;;;4900351;29;20040;-75
2022/03/05 03:16:04;;;;;;;15.82;11.15;;;;;;;;;;4900007;29;20055;-77
2022/03/05 03:18:29;;;;;;;17.83;11.40;;;;;;;;;;4900001;29;20048;-75
2022/03/05 03:20:55;;;;;;;16.95;11.05;;;;;;;;;;4899883;29;20032;-76
2022/03/05 03:23:21;;;;;;;15.02;10.30;;;;;;;;;;4899633;29;20064;-76
2022/03/05 03:25:47;;;;;;;12.63;8.68;;;;;;;;;;4899198;29;20043;-74
2022/03/05 03:28:14;;;;;;;11.80;8.38;;;;;;;;;;4899994;29;20029;-75
2022/03/05 03:30:40;;;;;;;12.50;8.75;;;;;;;;;;4900346;29;20373;-74
2022/03/05 03:33:06;;;;;;;12.68;8.55;;;;;;;;;;4900071;29;20051;-75
2022/03/05 03:35:31;;;;;;;13.50;8.07;;;;;;;;;;4899762;29;20036;-75
2022/03/05 03:37:57;;;;;;;9.13;6.85;;;;;;;;;;4899235;29;20040;-71
2022/03/05 03:40:23;;;;;;;10.98;7.38;;;;;;;;;;4899962;29;20441;-75
2022/03/05 03:42:51;;;;;;;10.65;7.70;;;;;;;;;;4899709;29;20039;-75
2022/03/05 03:45:17;;;;;;;10.07;6.85;;;;;;;;;;4899508;29;20025;-66
2022/03/05 03:47:46;;;;;;;10.10;6.80;;;;;;;;;;4899012;29;20119;-64
2022/03/05 03:50:15;;;;;;;9.82;6.90;;;;;;;;;;4899304;29;20072;-65
2022/03/05 03:52:41;;;;;;;10.27;6.68;;;;;;;;;;4899578;29;20079;-64
2022/03/05 03:55:10;;;;;;;9.10;6.40;;;;;;;;;;4899236;29;20859;-66
2022/03/05 03:57:37;;;;;;;9.90;6.63;;;;;;;;;;4899317;29;20075;-73
2022/03/05 04:00:09;;;;;;;11.95;7.03;;;;;;;;;;4899214;29;20045;-73
2022/03/05 04:02:39;;;;;;;9.80;6.75;;;;;;;;;;4884070;29;20061;-74
2022/03/05 04:05:05;;;;;;;10.05;7.07;;;;;;;;;;4879438;29;20053;-69
2022/03/05 04:10:15;;;;;;;11.70;8.05;;;;;;;;;;4896187;29;20051;-76
2022/03/05 04:12:41;;;;;;;9.77;6.32;;;;;;;;;;4900042;29;20032;-73
2022/03/05 04:15:07;;;;;;;8.27;5.95;;;;;;;;;;4900164;29;20036;-74
2022/03/05 04:17:33;;;;;;;8.15;5.90;;;;;;;;;;4900339;29;20033;-76
2022/03/05 04:19:59;;;;;;;8.52;5.80;;;;;;;;;;4899571;29;20052;-74
2022/03/05 04:22:24;;;;;;;8.30;5.55;;;;;;;;;;4898485;29;20033;-74
2022/03/05 04:24:50;;;;;;;8.40;5.93;;;;;;;;;;4899538;29;20045;-77
2022/03/05 04:27:16;;;;;;;8.40;5.85;;;;;;;;;;4899843;29;20469;-74
2022/03/05 04:29:42;;;;;;;10.07;6.82;;;;;;;;;;4900067;29;20085;-76
2022/03/05 04:32:08;;;;;;;11.10;7.13;;;;;;;;;;4899940;29;20059;-75
2022/03/05 04:34:34;;;;;;;11.10;7.03;;;;;;;;;;4899801;29;20044;-75
2022/03/05 04:36:59;;;;;;;11.90;7.05;;;;;;;;;;4899148;29;20160;-76
2022/03/05 04:39:25;;;;;;;11.23;7.60;;;;;;;;;;4898356;29;20131;-75
2022/03/05 04:41:51;;;;;;;12.40;7.60;;;;;;;;;;4899763;29;20028;-77
2022/03/05 04:44:17;;;;;;;9.95;7.45;;;;;;;;;;4899772;29;20040;-76
2022/03/05 04:46:43;;;;;;;11.90;7.53;;;;;;;;;;4899531;29;20107;-77
2022/03/05 04:49:09;;;;;;;12.90;7.47;;;;;;;;;;4899034;29;20051;-76
2022/03/05 04:51:35;;;;;;;10.48;7.00;;;;;;;;;;4899496;29;20436;-76
2022/03/05 04:54:01;;;;;;;7.53;5.38;;;;;;;;;;4899444;29;20128;-73
2022/03/05 04:56:27;;;;;;;8.80;4.82;;;;;;;;;;4899432;29;20169;-76
2022/03/05 04:58:53;;;;;;;5.50;4.28;;;;;;;;;;4899484;29;20128;-76
2022/03/05 05:01:21;;;;;;;7.95;5.22;;;;;;;;;;4899199;29;20461;-76
2022/03/05 05:03:47;;;;;;;5.47;3.47;;;;;;;;;;4899371;29;20060;-77
2022/03/05 05:06:13;;;;;;;6.68;4.68;;;;;;;;;;4898304;29;20132;-77
2022/03/05 05:08:39;;;;;;;6.07;4.30;;;;;;;;;;4899165;29;20036;-77
2022/03/05 05:11:05;;;;;;;5.72;4.13;;;;;;;;;;4899153;29;20032;-76
2022/03/05 05:13:31;;;;;;;3.80;2.67;;;;;;;;;;4898927;29;20045;-75
2022/03/05 05:15:57;;;;;;;3.40;2.20;;;;;;;;;;4898864;29;20025;-68
2022/03/05 05:18:23;;;;;;;3.13;2.28;;;;;;;;;;4899082;29;20037;-69
2022/03/05 05:20:49;;;;;;;3.33;2.17;;;;;;;;;;4897729;29;20035;-76
2022/03/05 05:23:14;;;;;;;3.03;2.08;;;;;;;;;;4898703;29;20044;-68
2022/03/05 05:25:40;;;;;;;3.58;2.30;;;;;;;;;;4885454;29;20040;-70
2022/03/05 05:28:06;;;;;;;3.15;2.10;;;;;;;;;;4880271;29;20029;-74
2022/03/05 05:30:33;;;;;;;2.92;2.10;;;;;;;;;;4879809;29;20028;-74
2022/03/05 05:32:58;;;;;;;3.55;2.40;;;;;;;;;;4885221;29;20037;-75
2022/03/05 05:35:24;;;;;;;4.30;2.53;;;;;;;;;;4887709;29;20037;-73
2022/03/05 05:37:50;;;;;;;4.38;2.85;;;;;;;;;;4879907;29;20084;-76
2022/03/05 05:40:16;;;;;;;4.47;3.03;;;;;;;;;;4879891;29;20025;-77
2022/03/05 05:42:42;;;;;;;5.93;3.75;;;;;;;;;;4885356;29;20370;-77
2022/03/05 05:45:09;;;;;;;5.07;3.85;;;;;;;;;;4906454;29;20493;-78
2022/03/05 05:47:36;;;;;;;6.75;4.13;;;;;;;;;;4906437;29;20040;-77
2022/03/05 05:50:03;;;;;;;9.02;5.47;;;;;;;;;;4906636;29;20145;-71
2022/03/05 05:52:29;;;;;;;9.48;6.07;;;;;;;;;;4903644;29;20045;-77
2022/03/05 05:54:55;;;;;;;8.23;5.50;;;;;;;;;;4907188;29;20032;-72
2022/03/05 05:57:21;;;;;;;8.88;5.88;;;;;;;;;;4906330;29;20024;-72
2022/03/05 05:59:47;;;;;;;9.95;5.43;;;;;;;;;;4902379;29;20514;-72
2022/03/05 06:02:13;;;;;;;9.00;5.65;;;;;;;;;;4901784;29;20043;-77
2022/03/05 06:04:39;;;;;;;9.32;5.35;;;;;;;;;;4879348;29;20071;-76
2022/03/05 06:07:05;;;;;;;10.45;5.85;;;;;;;;;;4878993;29;20069;-70
2022/03/05 06:09:31;;;;;;;8.95;6.30;;;;;;;;;;4879434;29;20033;-78
2022/03/05 06:11:57;;;;;;;10.60;6.20;;;;;;;;;;4879092;29;20350;-72
2022/03/05 06:14:22;;;;;;;12.73;7.30;;;;;;;;;;4879025;29;20025;-77
2022/03/05 06:16:48;;;;;;;11.65;7.10;;;;;;;;;;4879339;29;20045;-72
2022/03/05 06:19:14;;;;;;;10.45;6.70;;;;;;;;;;4878927;29;20096;-75
2022/03/05 06:21:40;;;;;;;9.48;6.82;;;;;;;;;;4878833;29;20064;-76
2022/03/05 06:24:07;;;;;;;12.23;7.28;;;;;;;;;;4879094;29;20065;-76
2022/03/05 06:26:34;;;;;;;11.23;6.60;;;;;;;;;;4878859;29;20073;-75
2022/03/05 06:29:01;;;;;;;9.88;6.45;;;;;;;;;;4878868;29;20473;-74
2022/03/05 06:31:27;;;;;;;8.73;6.13;;;;;;;;;;4878331;29;20041;-75
2022/03/05 06:33:53;;;;;;;11.02;6.80;;;;;;;;;;4879031;29;20033;-77
2022/03/05 06:36:19;;;;;;;9.65;6.28;;;;;;;;;;4878682;29;20598;-73
2022/03/05 06:38:47;;;;;;;9.13;6.22;;;;;;;;;;4878476;29;20033;-76
2022/03/05 06:41:12;;;;;;;8.02;5.45;;;;;;;;;;4878806;29;20041;-73
2022/03/05 06:43:38;;;;;;;11.60;5.75;;;;;;;;;;4878472;29;20029;-76
2022/03/05 06:46:04;;;;;;;7.38;5.60;;;;;;;;;;4878664;29;20055;-78
2022/03/05 06:48:30;;;;;;;7.22;4.95;;;;;;;;;;4878884;29;20112;-77
2022/03/05 06:50:55;;;;;;;9.63;6.03;;;;;;;;;;4878576;29;20045;-79
2022/03/05 06:53:21;;;;;;;8.57;6.28;;;;;;;;;;4878757;29;20033;-75
2022/03/05 06:55:47;;;;;;;8.00;6.35;;;;;;;;;;4878254;29;20556;-77
2022/03/05 06:58:14;;;;;;;12.18;6.72;;;;;;;;;;4878872;29;20512;-76
2022/03/05 07:00:40;;;;;;;9.48;6.72;;;;;;;;;;4878760;29;20054;-72
2022/03/05 07:03:06;;;;;;;13.20;7.85;;;;;;;;;;4878591;29;20480;-77
2022/03/05 07:05:32;;;;;;;11.65;8.05;;;;;;;;;;4878612;29;20450;-73
2022/03/05 07:07:58;;;;;;;11.43;8.20;;;;;;;;;;4878454;29;20036;-73
2022/03/05 07:10:23;;;;;;;12.30;8.68;;;;;;;;;;4893050;29;20037;-74
2022/03/05 07:12:49;;;;;;;11.90;8.07;;;;;;;;;;4893976;29;20040;-74
2022/03/05 07:15:17;;;;;;;11.77;7.65;;;;;;;;;;4881491;29;20029;-74
2022/03/05 07:17:50;;;;;;;12.85;8.55;;;;;;;;;;4881459;29;20029;-72
2022/03/05 07:20:16;;;;;;;13.35;7.80;;;;;;;;;;4878464;29;20493;-76
2022/03/05 07:22:42;;;;;;;15.73;8.55;;;;;;;;;;4883332;29;20051;-69
2022/03/05 07:25:09;;;;;;;14.40;7.85;;;;;;;;;;4888672;29;20037;-68
2022/03/05 07:27:34;;;;;;;11.85;7.88;;;;;;;;;;4878459;29;20393;-72
2022/03/05 07:30:00;;;;;;;10.43;6.93;;;;;;;;;;4878480;29;20033;-73
2022/03/05 07:32:26;;;;;;;6.32;5.30;;;;;;;;;;4881217;29;20033;-79
2022/03/05 07:34:52;;;;;;;17.52;6.85;;;;;;;;;;4878380;29;20033;-69
2022/03/05 07:37:17;;;;;;;17.92;7.15;;;;;;;;;;4878252;29;20025;-72
2022/03/05 07:39:43;;;;;;;12.77;6.45;;;;;;;;;;4886024;29;20036;-77
2022/03/05 07:42:09;;;;;;;10.88;7.45;;;;;;;;;;4890775;29;20056;-79
2022/03/05 07:44:36;;;;;;;9.32;6.60;;;;;;;;;;4881499;29;20044;-74
2022/03/05 07:47:02;;;;;;;9.57;6.20;;;;;;;;;;4881869;29;20433;-73
2022/03/05 07:53:09;;;;;;;22.50;8.95;;;;;;;;;;4889454;29;20515;-73
2022/03/05 07:55:35;;;;;;;28.48;9.10;;;;;;;;;;4881405;29;20036;-75
2022/03/05 07:58:01;;;;;;;9.98;6.70;;;;;;;;;;4898563;29;20075;-75
2022/03/05 08:00:27;;;;;;;8.35;6.10;;;;;;;;;;4899735;29;20080;-71
2022/03/05 08:02:53;;;;;;;10.27;7.07;;;;;;;;;;4897688;29;20037;-72
2022/03/05 08:05:19;;;;;;;44.88;10.77;;;;;;;;;;4887970;29;20130;-72
2022/03/05 08:07:45;;;;;;;25.42;7.82;;;;;;;;;;4889060;29;20033;-75
2022/03/05 08:10:11;;;;;;;19.23;7.25;;;;;;;;;;4884105;29;20044;-73
2022/03/05 08:12:37;;;;;;;54.92;9.95;;;;;;;;;;4890766;29;20535;-74
2022/03/05 08:15:04;;;;;;;46.60;8.63;;;;;;;;;;4883399;29;20096;-71
2022/03/05 08:17:30;;;;;;;14.55;6.22;;;;;;;;;;4889279;29;20056;-73
2022/03/05 08:19:56;;;;;;;33.15;8.05;;;;;;;;;;4880749;29;20490;-72
2022/03/05 08:22:22;;;;;;;21.10;6.80;;;;;;;;;;4881328;29;20025;-70
2022/03/05 08:24:48;;;;;;;34.42;6.25;;;;;;;;;;4881865;29;20041;-73
2022/03/05 08:27:14;;;;;;;11.73;4.82;;;;;;;;;;4883907;29;20021;-77
2022/03/05 08:29:40;;;;;;;19.67;5.65;;;;;;;;;;4881593;29;20040;-77
2022/03/05 08:32:06;;;;;;;11.88;5.90;;;;;;;;;;4880917;29;20481;-71
2022/03/05 08:34:33;;;;;;;12.95;4.70;;;;;;;;;;4888427;29;20060;-75
2022/03/05 08:36:58;;;;;;;15.10;5.53;;;;;;;;;;4899860;29;20373;-76
2022/03/05 08:39:25;;;;;;;9.15;4.10;;;;;;;;;;4898385;29;20076;-75
2022/03/05 08:41:51;;;;;;;33.80;7.38;;;;;;;;;;4898382;29;20058;-72
2022/03/05 08:44:17;;;;;;;4.95;3.38;;;;;;;;;;4897978;29;20036;-70
2022/03/05 08:46:43;;;;;;;4.43;2.75;;;;;;;;;;4899115;29;20031;-70
2022/03/05 08:49:09;;;;;;;12.15;3.50;;;;;;;;;;4899286;29;20116;-69
2022/03/05 08:51:35;;;;;;;34.58;6.10;;;;;;;;;;4898770;29;20028;-70
2022/03/05 08:54:00;;;;;;;8.30;3.55;;;;;;;;;;4898605;29;20032;-75
2022/03/05 08:56:26;;;;;;;8.82;3.40;;;;;;;;;;4898873;29;20104;-72
2022/03/05 08:58:52;;;;;;;8.15;3.30;;;;;;;;;;4899042;29;20072;-76
2022/03/05 09:01:18;;;;;;;5.70;2.50;;;;;;;;;;4897824;29;20087;-73
2022/03/05 09:03:44;;;;;;;9.77;4.80;;;;;;;;;;4899004;29;20049;-72
2022/03/05 09:06:10;;;;;;;5.43;3.20;;;;;;;;;;4898855;29;20100;-73
2022/03/05 09:08:37;;;;;;;5.32;3.45;;;;;;;;;;4898808;29;20504;-73
2022/03/05 09:11:06;;;;;;;4.18;2.70;;;;;;;;;;4898775;29;20450;-74
2022/03/05 09:13:32;;;;;;;5.00;2.40;;;;;;;;;;4898667;29;20045;-71
2022/03/05 09:15:58;;;;;;;4.57;2.90;;;;;;;;;;4898648;29;20029;-74
2022/03/05 09:18:24;;;;;;;5.43;3.08;;;;;;;;;;4898737;29;20402;-71
2022/03/05 09:20:50;;;;;;;4.78;2.60;;;;;;;;;;4898645;29;20036;-72
2022/03/05 09:23:15;;;;;;;3.70;2.70;;;;;;;;;;4898698;29;20476;-72
2022/03/05 09:25:43;;;;;;;4.78;2.80;;;;;;;;;;4898785;29;20025;-72
2022/03/05 09:28:08;;;;;;;3.28;1.98;;;;;;;;;;4898536;29;20044;-72
2022/03/05 09:30:35;;;;;;;3.65;2.40;;;;;;;;;;4898709;29;20037;-70
2022/03/05 09:33:01;;;;;;;5.18;2.60;;;;;;;;;;4898394;29;20036;-71
2022/03/05 09:35:26;;;;;;;4.72;3.25;;;;;;;;;;4898477;29;20033;-72
2022/03/05 09:37:52;;;;;;;4.10;2.92;;;;;;;;;;4897063;29;20041;-71
2022/03/05 09:40:18;;;;;;;4.55;3.35;;;;;;;;;;4898350;29;20037;-71
2022/03/05 09:42:45;;;;;;;5.60;3.80;;;;;;;;;;4898153;29;20036;-75
2022/03/05 09:45:12;;;;;;;9.70;4.55;;;;;;;;;;4898262;29;20024;-70
2022/03/05 09:47:39;;;;;;;4.38;3.55;;;;;;;;;;4898056;29;20075;-70
2022/03/05 09:50:06;;;;;;;5.78;3.70;;;;;;;;;;4897993;29;20825;-70
2022/03/05 09:52:32;;;;;;;7.00;5.03;;;;;;;;;;4897987;29;20041;-71
2022/03/05 09:54:58;;;;;;;16.58;5.80;;;;;;;;;;4897863;29;20032;-72
2022/03/05 09:57:25;;;;;;;6.13;4.30;;;;;;;;;;4897827;29;20044;-77
2022/03/05 09:59:51;;;;;;;8.02;3.92;;;;;;;;;;4898050;29;20048;-75
2022/03/05 10:02:18;;;;;;;7.72;3.30;;;;;;;;;;4898142;29;20040;-72
2022/03/05 10:04:44;;;;;;;11.40;3.20;;;;;;;;;;4897832;29;20024;-71
2022/03/05 10:07:16;;;;;;;17.95;4.10;;;;;;;;;;4896991;29;20488;-72
2022/03/05 10:09:45;;;;;;;39.10;6.88;;;;;;;;;;4897523;29;20036;-71
2022/03/05 10:12:32;;;;;;;49.28;5.82;;;;;;;;;;4897464;29;20441;-70
2022/03/05 10:15:12;;;;;;;7.70;3.38;;;;;;;;;;4897611;29;20115;-73
2022/03/05 10:17:53;;;;;;;27.15;4.65;;;;;;;;;;4897277;29;20069;-71
2022/03/05 10:20:31;;;;;;;24.60;5.65;;;;;;;;;;4896724;29;20047;-70
2022/03/05 10:22:58;;;;;;;9.88;4.40;;;;;;;;;;4897366;29;20490;-73
2022/03/05 10:25:42;;;;;;;43.80;7.35;;;;;;;;;;4896075;29;20507;-70
2022/03/05 10:28:14;;;;;;;40.72;7.63;;;;;;;;;;4897415;29;20047;-73
2022/03/05 10:30:43;;;;;;;21.48;4.93;;;;;;;;;;4898301;29;20045;-71
2022/03/05 10:33:26;;;;;;;17.67;4.53;;;;;;;;;;4896986;29;20028;-69
2022/03/05 10:35:53;;;;;;;28.20;6.72;;;;;;;;;;4897274;29;20040;-71
2022/03/05 10:38:19;;;;;;;35.17;7.13;;;;;;;;;;4896930;29;20024;-71
2022/03/05 10:40:53;;;;;;;62.67;7.82;;;;;;;;;;4896864;29;20456;-70
2022/03/05 10:43:19;;;;;;;56.10;6.95;;;;;;;;;;4896674;29;20036;-72
2022/03/05 10:45:58;;;;;;;11.25;4.15;;;;;;;;;;4893042;29;20028;-71
2022/03/05 10:48:31;;;;;;;26.88;5.47;;;;;;;;;;4895166;29;20028;-71
2022/03/05 10:51:00;;;;;;;;;;;;;;;;;;4892049;29;20040;-73
2022/03/05 10:53:47;;;;;;;7.20;4.05;;;;;;;;;;4892827;29;20306;-72
2022/03/05 10:56:26;;;;;;;16.55;4.63;;;;;;;;;;4896348;29;20153;-71
2022/03/05 10:59:03;;;;;;;24.13;5.60;;;;;;;;;;4891039;29;20085;-71
2022/03/05 11:01:31;;;;;;;7.25;4.10;;;;;;;;;;4892872;29;20041;-73
2022/03/05 11:03:58;;;;;;;17.33;4.60;;;;;;;;;;4896604;29;20037;-71
2022/03/05 11:06:24;;;;;;;14.18;5.13;;;;;;;;;;4896920;29;20048;-73
2022/03/05 11:08:51;;;;;;;8.40;4.32;;;;;;;;;;4895582;29;20083;-72
2022/03/05 11:11:18;;;;;;;6.40;3.60;;;;;;;;;;4896351;29;20029;-73
2022/03/05 11:13:44;;;;;;;6.22;4.10;;;;;;;;;;4896797;29;20040;-72
2022/03/05 11:16:12;;;;;;;6.70;4.07;;;;;;;;;;4896996;29;20033;-73
2022/03/05 11:18:39;;;;;;;6.25;4.10;;;;;;;;;;4899350;29;20060;-73
2022/03/05 11:21:06;;;;;;;6.68;3.80;;;;;;;;;;4900082;29;20041;-72
2022/03/05 11:23:34;;;;;;;7.95;3.95;;;;;;;;;;4900157;29;20484;-72
2022/03/05 11:26:00;;;;;;;3.58;2.13;;;;;;;;;;4900414;29;20075;-72
2022/03/05 11:28:35;;;;;;;3.17;1.80;;;;;;;;;;4899563;29;20028;-71
2022/03/05 11:31:34;;;;;;;4.43;2.22;;;;;;;;;;4900811;29;20037;-71
2022/03/05 11:34:19;;;;;;;6.88;3.20;;;;;;;;;;4884141;29;20049;-71
2022/03/05 11:36:47;;;;;;;7.10;4.55;;;;;;;;;;4900369;29;20039;-72
2022/03/05 11:39:18;;;;;;;6.72;4.65;;;;;;;;;;4900311;29;20032;-74
2022/03/05 11:41:50;;;;;;;9.80;5.68;;;;;;;;;;4899096;29;20329;-71
2022/03/05 11:44:17;;;;;;;6.50;2.95;;;;;;;;;;4900466;29;20460;-71
2022/03/05 11:46:43;;;;;;;3.58;2.45;;;;;;;;;;4900613;29;20048;-77
2022/03/05 11:49:13;;;;;;;3.30;1.90;;;;;;;;;;4900254;29;20451;-78
2022/03/05 11:52:08;;;;;;;2.30;1.55;;;;;;;;;;4900203;29;20426;-72
2022/03/05 11:54:34;;;;;;;3.58;1.95;;;;;;;;;;4888048;29;20045;-72
2022/03/05 11:57:14;;;;;;;3.70;2.15;;;;;;;;;;4900269;29;20035;-71
2022/03/05 11:59:51;;;;;;;3.03;1.83;;;;;;;;;;4900224;29;20064;-76
2022/03/05 12:02:38;;;;;;;5.03;2.22;;;;;;;;;;4900231;29;20041;-72
2022/03/05 12:05:05;;;;;;;2.80;1.80;;;;;;;;;;4900111;29;20036;-75
2022/03/05 12:07:42;;;;;;;3.22;2.15;;;;;;;;;;4900280;29;20036;-75
2022/03/05 12:10:13;;;;;;;4.78;2.22;;;;;;;;;;4900025;29;20087;-74
2022/03/05 12:12:59;;;;;;;2.88;1.83;;;;;;;;;;4900261;29;20052;-73
2022/03/05 12:15:32;;;;;;;3.22;1.98;;;;;;;;;;4899606;29;20069;-74
2022/03/05 12:18:00;;;;;;;4.03;1.90;;;;;;;;;;4899824;29;20499;-75
2022/03/05 12:20:34;;;;;;;2.10;1.50;;;;;;;;;;4900065;29;20059;-73
2022/03/05 12:23:04;;;;;;;3.20;2.10;;;;;;;;;;4900019;29;20123;-73
2022/03/05 12:25:41;;;;;;;2.38;1.70;;;;;;;;;;4899756;29;20104;-70
2022/03/05 12:28:23;;;;;;;5.65;1.73;;;;;;;;;;4900184;29;20041;-74
2022/03/05 12:30:53;;;;;;;3.83;2.10;;;;;;;;;;4900273;29;20033;-70
2022/03/05 12:33:20;;;;;;;1.92;1.55;;;;;;;;;;4899989;29;20045;-73
2022/03/05 12:35:47;;;;;;;2.35;1.60;;;;;;;;;;4900091;29;20059;-74
2022/03/05 12:38:18;;;;;;;3.78;2.08;;;;;;;;;;4899966;29;20036;-73
2022/03/05 12:40:44;;;;;;;3.67;2.25;;;;;;;;;;4899754;29;20052;-73
2022/03/05 12:43:09;;;;;;;3.60;2.38;;;;;;;;;;4899595;29;20028;-71
2022/03/05 12:45:38;;;;;;;4.43;2.42;;;;;;;;;;4899611;29;20063;-74
2022/03/05 12:48:13;;;;;;;5.68;2.97;;;;;;;;;;4899482;29;20301;-73
2022/03/05 12:50:41;;;;;;;5.97;2.60;;;;;;;;;;4899522;29;20033;-69
2022/03/05 12:53:16;;;;;;;4.05;2.28;;;;;;;;;;4899022;29;20556;-75
2022/03/05 12:55:51;;;;;;;3.50;2.40;;;;;;;;;;4897845;29;20044;-76
2022/03/05 12:58:20;;;;;;;3.58;2.10;;;;;;;;;;4898960;29;20119;-71
2022/03/05 13:00:49;;;;;;;3.25;1.80;;;;;;;;;;4898929;29;20100;-71
2022/03/05 13:03:16;;;;;;;4.55;2.20;;;;;;;;;;4899357;29;20081;-70
2022/03/05 13:05:44;;;;;;;3.38;1.80;;;;;;;;;;4899102;29;20036;-73
2022/03/05 13:08:18;;;;;;;3.00;1.85;;;;;;;;;;4899262;29;20503;-71
2022/03/05 13:10:46;;;;;;;1.90;1.42;;;;;;;;;;4899379;29;20039;-68
2022/03/05 13:13:13;;;;;;;2.88;1.50;;;;;;;;;;4899122;29;20032;-73
2022/03/05 13:15:40;;;;;;;2.40;1.30;;;;;;;;;;4899164;29;20071;-71
2022/03/05 13:18:15;;;;;;;3.20;1.80;;;;;;;;;;4898874;29;20384;-72
2022/03/05 13:20:46;;;;;;;2.03;1.38;;;;;;;;;;4899140;29;20061;-75
2022/03/05 13:23:19;;;;;;;1.95;1.20;;;;;;;;;;4899275;29;20037;-71
2022/03/05 13:25:49;;;;;;;1.85;1.25;;;;;;;;;;4899139;29;20040;-71
2022/03/05 13:28:17;;;;;;;2.35;1.73;;;;;;;;;;4898888;29;20179;-71
2022/03/05 13:30:48;;;;;;;1.50;0.90;;;;;;;;;;4898742;29;20031;-71
2022/03/05 13:33:41;;;;;;;2.78;1.50;;;;;;;;;;4898968;29;20048;-75
2022/03/05 13:36:29;;;;;;;2.40;1.50;;;;;;;;;;4898740;29;20501;-76
2022/03/05 13:39:19;;;;;;;2.97;1.90;;;;;;;;;;4898876;29;20081;-72
2022/03/05 13:41:48;;;;;;;3.72;2.33;;;;;;;;;;4897554;29;20051;-72
2022/03/05 13:44:25;;;;;;;3.13;1.92;;;;;;;;;;4898539;29;20520;-70
2022/03/05 13:46:52;;;;;;;4.00;2.33;;;;;;;;;;4898515;29;20088;-74
2022/03/05 13:49:19;;;;;;;3.17;2.00;;;;;;;;;;4899046;29;20388;-73
2022/03/05 13:51:54;;;;;;;3.30;2.10;;;;;;;;;;4898502;29;20511;-71
2022/03/05 13:54:44;;;;;;;4.00;2.63;;;;;;;;;;4898390;29;20040;-74
2022/03/05 13:57:16;;;;;;;3.45;2.33;;;;;;;;;;4896194;29;20036;-73
2022/03/05 13:59:44;;;;;;;3.55;2.58;;;;;;;;;;4898342;29;20049;-76
2022/03/05 14:02:11;;;;;;;5.72;2.45;;;;;;;;;;4897859;29;20037;-73
2022/03/05 14:04:59;;;;;;;4.97;2.50;;;;;;;;;;4897816;29;20044;-71
2022/03/05 14:07:25;;;;;;;2.92;1.83;;;;;;;;;;4898142;29;20044;-78
2022/03/05 14:09:51;;;;;;;5.07;1.85;;;;;;;;;;4897857;29;20076;-73
2022/03/05 14:12:23;;;;;;;3.45;2.35;;;;;;;;;;4897857;29;20055;-70
2022/03/05 14:14:50;;;;;;;2.70;1.90;;;;;;;;;;4897740;29;20092;-74
2022/03/05 14:17:40;;;;;;;4.07;2.53;;;;;;;;;;4898087;29;20036;-72
2022/03/05 14:20:15;;;;;;;3.60;2.63;;;;;;;;;;4897819;29;20116;-73
2022/03/05 14:23:01;;;;;;;5.45;3.30;;;;;;;;;;4897664;29;20033;-75
2022/03/05 14:25:31;;;;;;;4.75;2.95;;;;;;;;;;4897681;29;20504;-74
2022/03/05 14:27:59;;;;;;;3.85;2.28;;;;;;;;;;4897831;29;20040;-72
2022/03/05 14:30:28;;;;;;;6.18;3.15;;;;;;;;;;4897788;29;20060;-72
2022/03/05 14:32:54;;;;;;;3.42;2.60;;;;;;;;;;4897157;29;20036;-73
2022/03/05 14:35:21;;;;;;;4.85;3.38;;;;;;;;;;4897493;29;20040;-73
2022/03/05 14:37:49;;;;;;;4.10;3.25;;;;;;;;;;4897202;29;20100;-75
2022/03/05 14:40:18;;;;;;;4.72;3.30;;;;;;;;;;4897422;29;20512;-71
2022/03/05 14:42:44;;;;;;;4.50;3.00;;;;;;;;;;4897375;29;20029;-72
2022/03/05 14:45:12;;;;;;;4.75;3.28;;;;;;;;;;4896891;29;20097;-68
2022/03/05 14:47:39;;;;;;;4.65;3.20;;;;;;;;;;4897583;29;20139;-71